sensor_id;sensor_type;location;lat;lon;timestamp;noise_LAeq;noise_LA_min;noise_LA_max;noise_LA01;noise_LA95
71020;Laerm;58902;51.436;5.980;2023-02-12T00:00:00;42.58;32.07;51.91;;
71020;Laerm;58902;51.436;5.980;2023-02-12T00:00:11;44.23;32.69;55.21;;
71020;Laerm;58902;51.436;5.980;2023-02-12T00:00:21;41.88;31.84;52.10;;
71020;Laerm;58902;51.436;5.980;2023-02-12T00:00:32;44.15;31.90;59.94;;
71020;Laerm;58902;51.436;5.980;2023-02-12T00:00:43;39.21;31.45;50.61;;
71020;Laerm;58902;51.436;5.980;2023-02-12T00:00:53;39.06;32.43;50.87;;
71020;Laerm;58902;51.436;5.980;2023-02-12T00:01:07;42.48;32.55;51.34;;
71020;Laerm;58902;51.436;5.980;2023-02-12T00:01:18;38.53;31.00;49.27;;
71020;Laerm;58902;51.436;5.980;2023-02-12T00:01:29;39.22;31.28;50.73;;
71020;Laerm;58902;51.436;5.980;2023-02-12T00:01:39;39.22;31.35;50.49;;
71020;Laerm;58902;51.436;5.980;2023-02-12T00:01:50;40.05;32.28;53.89;;
71020;Laerm;58902;51.436;5.980;2023-02-12T00:02:00;37.38;32.74;45.51;;
71020;Laerm;58902;51.436;5.980;2023-02-12T00:02:10;37.18;30.90;44.84;;
71020;Laerm;58902;51.436;5.980;2023-02-12T00:02:21;42.05;31.81;54.57;;
71020;Laerm;58902;51.436;5.980;2023-02-12T00:02:31;46.88;32.06;54.63;;
71020;Laerm;58902;51.436;5.980;2023-02-12T00:02:42;44.22;33.64;52.33;;
71020;Laerm;58902;51.436;5.980;2023-02-12T00:02:52;41.96;31.97;53.75;;
71020;Laerm;58902;51.436;5.980;2023-02-12T00:03:02;41.37;30.93;50.79;;
71020;Laerm;58902;51.436;5.980;2023-02-12T00:03:13;41.83;30.89;52.73;;
71020;Laerm;58902;51.436;5.980;2023-02-12T00:03:23;39.69;31.22;49.77;;
71020;Laerm;58902;51.436;5.980;2023-02-12T00:03:34;39.74;31.05;48.41;;
71020;Laerm;58902;51.436;5.980;2023-02-12T00:03:44;38.03;31.84;47.22;;
71020;Laerm;58902;51.436;5.980;2023-02-12T00:03:55;41.56;33.19;49.43;;
71020;Laerm;58902;51.436;5.980;2023-02-12T00:04:05;41.87;33.41;50.96;;
71020;Laerm;58902;51.436;5.980;2023-02-12T00:04:15;41.44;31.81;53.19;;
71020;Laerm;58902;51.436;5.980;2023-02-12T00:04:26;44.79;34.26;55.00;;
71020;Laerm;58902;51.436;5.980;2023-02-12T00:04:36;41.69;33.69;52.94;;
71020;Laerm;58902;51.436;5.980;2023-02-12T00:04:47;38.42;34.10;46.18;;
71020;Laerm;58902;51.436;5.980;2023-02-12T00:04:58;37.68;33.28;44.55;;
71020;Laerm;58902;51.436;5.980;2023-02-12T00:05:08;42.61;33.65;52.32;;
71020;Laerm;58902;51.436;5.980;2023-02-12T00:05:18;37.68;33.33;47.22;;
71020;Laerm;58902;51.436;5.980;2023-02-12T00:05:29;37.96;33.61;45.37;;
71020;Laerm;58902;51.436;5.980;2023-02-12T00:05:39;38.36;34.16;44.66;;
71020;Laerm;58902;51.436;5.980;2023-02-12T00:05:53;39.96;34.18;52.44;;
71020;Laerm;58902;51.436;5.980;2023-02-12T00:06:04;39.25;33.76;47.15;;
71020;Laerm;58902;51.436;5.980;2023-02-12T00:06:14;41.95;33.27;53.93;;
71020;Laerm;58902;51.436;5.980;2023-02-12T00:06:25;46.55;35.29;56.44;;
71020;Laerm;58902;51.436;5.980;2023-02-12T00:06:36;39.09;34.20;49.32;;
71020;Laerm;58902;51.436;5.980;2023-02-12T00:06:47;44.46;34.68;54.97;;
71020;Laerm;58902;51.436;5.980;2023-02-12T00:06:57;39.43;33.95;51.14;;
71020;Laerm;58902;51.436;5.980;2023-02-12T00:07:07;42.96;32.24;53.04;;
71020;Laerm;58902;51.436;5.980;2023-02-12T00:07:18;40.54;31.56;51.09;;
71020;Laerm;58902;51.436;5.980;2023-02-12T00:07:29;44.32;32.81;54.79;;
71020;Laerm;58902;51.436;5.980;2023-02-12T00:07:39;43.70;35.01;55.47;;
71020;Laerm;58902;51.436;5.980;2023-02-12T00:07:49;48.90;35.64;65.88;;
71020;Laerm;58902;51.436;5.980;2023-02-12T00:08:00;44.28;37.02;53.94;;
71020;Laerm;58902;51.436;5.980;2023-02-12T00:08:10;41.44;36.37;51.39;;
71020;Laerm;58902;51.436;5.980;2023-02-12T00:08:21;43.38;32.41;55.46;;
71020;Laerm;58902;51.436;5.980;2023-02-12T00:08:31;42.07;32.46;51.15;;
71020;Laerm;58902;51.436;5.980;2023-02-12T00:08:42;44.06;31.70;58.65;;
71020;Laerm;58902;51.436;5.980;2023-02-12T00:08:53;39.06;31.87;48.20;;
71020;Laerm;58902;51.436;5.980;2023-02-12T00:09:03;40.42;31.00;50.51;;
71020;Laerm;58902;51.436;5.980;2023-02-12T00:09:14;45.65;32.39;56.43;;
71020;Laerm;58902;51.436;5.980;2023-02-12T00:09:24;40.57;31.83;53.20;;
71020;Laerm;58902;51.436;5.980;2023-02-12T00:09:35;36.85;32.07;46.16;;
71020;Laerm;58902;51.436;5.980;2023-02-12T00:09:46;37.49;31.40;47.69;;
71020;Laerm;58902;51.436;5.980;2023-02-12T00:09:56;39.47;31.85;47.53;;
71020;Laerm;58902;51.436;5.980;2023-02-12T00:10:06;41.16;32.08;51.43;;
71020;Laerm;58902;51.436;5.980;2023-02-12T00:10:18;40.06;32.28;51.07;;
71020;Laerm;58902;51.436;5.980;2023-02-12T00:10:29;36.14;32.20;43.22;;
71020;Laerm;58902;51.436;5.980;2023-02-12T00:10:40;36.83;32.48;47.33;;
71020;Laerm;58902;51.436;5.980;2023-02-12T00:10:52;37.29;31.81;50.81;;
71020;Laerm;58902;51.436;5.980;2023-02-12T00:11:21;36.88;32.13;46.86;;
71020;Laerm;58902;51.436;5.980;2023-02-12T00:11:32;36.61;31.69;45.49;;
71020;Laerm;58902;51.436;5.980;2023-02-12T00:11:42;37.57;32.42;48.15;;
71020;Laerm;58902;51.436;5.980;2023-02-12T00:11:52;37.88;33.14;46.05;;
71020;Laerm;58902;51.436;5.980;2023-02-12T00:12:03;41.28;33.25;48.75;;
71020;Laerm;58902;51.436;5.980;2023-02-12T00:12:13;38.19;33.15;46.08;;
71020;Laerm;58902;51.436;5.980;2023-02-12T00:12:23;38.42;33.22;44.98;;
71020;Laerm;58902;51.436;5.980;2023-02-12T00:12:34;38.05;34.06;46.48;;
71020;Laerm;58902;51.436;5.980;2023-02-12T00:12:44;43.44;34.69;54.98;;
71020;Laerm;58902;51.436;5.980;2023-02-12T00:12:55;44.63;34.79;54.47;;
71020;Laerm;58902;51.436;5.980;2023-02-12T00:13:05;41.21;31.97;52.14;;
71020;Laerm;58902;51.436;5.980;2023-02-12T00:13:15;40.37;31.85;49.44;;
71020;Laerm;58902;51.436;5.980;2023-02-12T00:13:25;38.33;31.89;48.36;;
71020;Laerm;58902;51.436;5.980;2023-02-12T00:13:39;42.06;31.62;52.71;;
71020;Laerm;58902;51.436;5.980;2023-02-12T00:13:49;41.13;31.30;52.26;;
71020;Laerm;58902;51.436;5.980;2023-02-12T00:14:00;35.57;30.62;44.86;;
71020;Laerm;58902;51.436;5.980;2023-02-12T00:14:11;39.79;31.08;50.39;;
71020;Laerm;58902;51.436;5.980;2023-02-12T00:14:21;41.96;31.47;52.50;;
71020;Laerm;58902;51.436;5.980;2023-02-12T00:14:32;39.34;30.52;48.85;;
71020;Laerm;58902;51.436;5.980;2023-02-12T00:14:43;39.52;31.24;48.41;;
71020;Laerm;58902;51.436;5.980;2023-02-12T00:14:54;40.16;30.51;49.41;;
71020;Laerm;58902;51.436;5.980;2023-02-12T00:15:04;41.83;31.04;50.62;;
71020;Laerm;58902;51.436;5.980;2023-02-12T00:15:15;37.10;30.58;47.89;;
71020;Laerm;58902;51.436;5.980;2023-02-12T00:15:25;38.14;31.08;50.31;;
71020;Laerm;58902;51.436;5.980;2023-02-12T00:15:39;45.35;33.26;56.71;;
71020;Laerm;58902;51.436;5.980;2023-02-12T00:15:49;39.62;32.61;49.05;;
71020;Laerm;58902;51.436;5.980;2023-02-12T00:16:03;39.40;31.67;48.73;;
71020;Laerm;58902;51.436;5.980;2023-02-12T00:16:14;42.02;30.89;53.57;;
71020;Laerm;58902;51.436;5.980;2023-02-12T00:16:25;39.11;31.05;49.32;;
71020;Laerm;58902;51.436;5.980;2023-02-12T00:16:36;38.39;31.26;49.91;;
71020;Laerm;58902;51.436;5.980;2023-02-12T00:16:46;38.63;30.95;51.79;;
71020;Laerm;58902;51.436;5.980;2023-02-12T00:16:57;39.98;30.95;55.14;;
71020;Laerm;58902;51.436;5.980;2023-02-12T00:17:07;37.60;30.79;48.97;;
71020;Laerm;58902;51.436;5.980;2023-02-12T00:17:17;37.39;30.34;45.89;;
71020;Laerm;58902;51.436;5.980;2023-02-12T00:17:28;37.14;31.14;49.70;;
71020;Laerm;58902;51.436;5.980;2023-02-12T00:17:38;35.60;31.37;43.03;;
71020;Laerm;58902;51.436;5.980;2023-02-12T00:17:48;35.93;31.36;46.18;;
71020;Laerm;58902;51.436;5.980;2023-02-12T00:17:59;34.96;31.42;42.80;;
71020;Laerm;58902;51.436;5.980;2023-02-12T00:18:09;35.70;31.83;44.12;;
71020;Laerm;58902;51.436;5.980;2023-02-12T00:18:19;39.91;32.38;50.20;;
71020;Laerm;58902;51.436;5.980;2023-02-12T00:18:30;35.87;30.99;44.37;;
71020;Laerm;58902;51.436;5.980;2023-02-12T00:18:40;34.78;32.31;40.33;;
71020;Laerm;58902;51.436;5.980;2023-02-12T00:18:51;37.39;32.79;48.39;;
71020;Laerm;58902;51.436;5.980;2023-02-12T00:19:02;36.87;32.43;45.72;;
71020;Laerm;58902;51.436;5.980;2023-02-12T00:19:12;38.34;32.88;48.77;;
71020;Laerm;58902;51.436;5.980;2023-02-12T00:19:23;36.18;32.04;44.39;;
71020;Laerm;58902;51.436;5.980;2023-02-12T00:19:33;38.28;32.00;50.06;;
71020;Laerm;58902;51.436;5.980;2023-02-12T00:19:44;37.42;32.35;47.49;;
71020;Laerm;58902;51.436;5.980;2023-02-12T00:19:55;37.45;32.95;48.64;;
71020;Laerm;58902;51.436;5.980;2023-02-12T00:20:06;41.03;30.99;53.46;;
71020;Laerm;58902;51.436;5.980;2023-02-12T00:20:16;37.18;31.40;47.88;;
71020;Laerm;58902;51.436;5.980;2023-02-12T00:20:27;38.65;32.00;48.09;;
71020;Laerm;58902;51.436;5.980;2023-02-12T00:20:37;35.87;31.49;45.96;;
71020;Laerm;58902;51.436;5.980;2023-02-12T00:20:48;36.74;32.11;43.58;;
71020;Laerm;58902;51.436;5.980;2023-02-12T00:20:59;36.76;32.64;41.63;;
71020;Laerm;58902;51.436;5.980;2023-02-12T00:21:09;38.71;36.55;46.21;;
71020;Laerm;58902;51.436;5.980;2023-02-12T00:21:21;39.52;36.63;48.39;;
71020;Laerm;58902;51.436;5.980;2023-02-12T00:21:31;41.72;33.50;56.06;;
71020;Laerm;58902;51.436;5.980;2023-02-12T00:21:42;39.54;32.34;50.05;;
71020;Laerm;58902;51.436;5.980;2023-02-12T00:21:52;39.84;32.30;51.32;;
71020;Laerm;58902;51.436;5.980;2023-02-12T00:22:02;35.68;32.07;44.16;;
71020;Laerm;58902;51.436;5.980;2023-02-12T00:22:13;39.93;32.89;50.62;;
71020;Laerm;58902;51.436;5.980;2023-02-12T00:22:23;38.72;32.30;49.36;;
71020;Laerm;58902;51.436;5.980;2023-02-12T00:22:33;37.12;31.93;45.77;;
71020;Laerm;58902;51.436;5.980;2023-02-12T00:22:47;35.46;31.25;43.49;;
71020;Laerm;58902;51.436;5.980;2023-02-12T00:22:57;38.28;32.14;47.34;;
71020;Laerm;58902;51.436;5.980;2023-02-12T00:23:09;37.28;32.67;45.11;;
71020;Laerm;58902;51.436;5.980;2023-02-12T00:23:19;37.93;32.40;48.47;;
71020;Laerm;58902;51.436;5.980;2023-02-12T00:23:30;42.64;32.49;50.66;;
71020;Laerm;58902;51.436;5.980;2023-02-12T00:23:40;37.86;32.31;50.47;;
71020;Laerm;58902;51.436;5.980;2023-02-12T00:23:51;36.34;31.77;45.03;;
71020;Laerm;58902;51.436;5.980;2023-02-12T00:24:01;39.65;32.68;49.00;;
71020;Laerm;58902;51.436;5.980;2023-02-12T00:24:12;39.50;36.10;45.72;;
71020;Laerm;58902;51.436;5.980;2023-02-12T00:24:22;40.17;34.90;51.22;;
71020;Laerm;58902;51.436;5.980;2023-02-12T00:24:32;38.60;32.50;49.31;;
71020;Laerm;58902;51.436;5.980;2023-02-12T00:24:43;35.98;32.28;45.18;;
71020;Laerm;58902;51.436;5.980;2023-02-12T00:24:53;40.15;34.28;50.35;;
71020;Laerm;58902;51.436;5.980;2023-02-12T00:25:04;39.03;35.17;46.19;;
71020;Laerm;58902;51.436;5.980;2023-02-12T00:25:14;38.74;34.54;47.86;;
71020;Laerm;58902;51.436;5.980;2023-02-12T00:25:24;43.74;34.19;56.87;;
71020;Laerm;58902;51.436;5.980;2023-02-12T00:25:39;37.93;33.20;47.15;;
71020;Laerm;58902;51.436;5.980;2023-02-12T00:25:49;36.64;33.03;46.64;;
71020;Laerm;58902;51.436;5.980;2023-02-12T00:26:00;35.81;30.87;45.01;;
71020;Laerm;58902;51.436;5.980;2023-02-12T00:26:14;35.48;31.20;43.57;;
71020;Laerm;58902;51.436;5.980;2023-02-12T00:26:25;35.19;31.45;43.38;;
71020;Laerm;58902;51.436;5.980;2023-02-12T00:26:36;34.35;31.55;40.89;;
71020;Laerm;58902;51.436;5.980;2023-02-12T00:26:46;35.75;31.06;43.86;;
71020;Laerm;58902;51.436;5.980;2023-02-12T00:26:57;38.30;30.96;49.71;;
71020;Laerm;58902;51.436;5.980;2023-02-12T00:27:07;39.85;30.88;49.24;;
71020;Laerm;58902;51.436;5.980;2023-02-12T00:27:18;38.68;31.74;46.07;;
71020;Laerm;58902;51.436;5.980;2023-02-12T00:27:31;36.74;32.30;45.35;;
71020;Laerm;58902;51.436;5.980;2023-02-12T00:27:41;39.75;31.64;49.77;;
71020;Laerm;58902;51.436;5.980;2023-02-12T00:27:52;40.67;31.80;50.52;;
71020;Laerm;58902;51.436;5.980;2023-02-12T00:28:02;38.61;32.49;48.74;;
71020;Laerm;58902;51.436;5.980;2023-02-12T00:28:12;38.07;33.35;47.51;;
71020;Laerm;58902;51.436;5.980;2023-02-12T00:28:23;39.80;33.08;47.91;;
71020;Laerm;58902;51.436;5.980;2023-02-12T00:28:33;38.39;33.31;48.81;;
71020;Laerm;58902;51.436;5.980;2023-02-12T00:28:44;39.68;32.60;49.71;;
71020;Laerm;58902;51.436;5.980;2023-02-12T00:28:54;38.83;32.95;49.35;;
71020;Laerm;58902;51.436;5.980;2023-02-12T00:29:05;40.14;33.31;53.23;;
71020;Laerm;58902;51.436;5.980;2023-02-12T00:29:15;39.16;32.82;50.44;;
71020;Laerm;58902;51.436;5.980;2023-02-12T00:29:26;40.72;33.44;49.60;;
71020;Laerm;58902;51.436;5.980;2023-02-12T00:29:36;40.15;33.66;50.46;;
71020;Laerm;58902;51.436;5.980;2023-02-12T00:29:47;42.94;33.43;53.95;;
71020;Laerm;58902;51.436;5.980;2023-02-12T00:29:57;39.40;31.62;48.53;;
71020;Laerm;58902;51.436;5.980;2023-02-12T00:30:07;42.91;31.86;55.52;;
71020;Laerm;58902;51.436;5.980;2023-02-12T00:30:18;45.29;32.17;56.96;;
71020;Laerm;58902;51.436;5.980;2023-02-12T00:30:28;45.10;31.95;58.60;;
71020;Laerm;58902;51.436;5.980;2023-02-12T00:30:38;41.51;30.41;57.13;;
71020;Laerm;58902;51.436;5.980;2023-02-12T00:30:49;41.34;30.60;52.93;;
71020;Laerm;58902;51.436;5.980;2023-02-12T00:31:09;40.68;30.88;51.96;;
71020;Laerm;58902;51.436;5.980;2023-02-12T00:31:21;43.43;31.28;55.15;;
71020;Laerm;58902;51.436;5.980;2023-02-12T00:31:32;37.82;31.35;48.06;;
71020;Laerm;58902;51.436;5.980;2023-02-12T00:31:42;37.09;31.27;44.85;;
71020;Laerm;58902;51.436;5.980;2023-02-12T00:31:53;39.68;31.45;50.69;;
71020;Laerm;58902;51.436;5.980;2023-02-12T00:32:03;43.31;31.89;51.85;;
71020;Laerm;58902;51.436;5.980;2023-02-12T00:32:13;41.54;30.69;52.79;;
71020;Laerm;58902;51.436;5.980;2023-02-12T00:32:28;42.16;31.82;54.91;;
71020;Laerm;58902;51.436;5.980;2023-02-12T00:32:38;45.09;33.02;55.72;;
71020;Laerm;58902;51.436;5.980;2023-02-12T00:32:49;41.56;32.63;52.86;;
71020;Laerm;58902;51.436;5.980;2023-02-12T00:33:00;40.63;33.08;50.92;;
71020;Laerm;58902;51.436;5.980;2023-02-12T00:33:10;38.97;34.05;46.98;;
71020;Laerm;58902;51.436;5.980;2023-02-12T00:33:21;39.12;33.18;46.11;;
71020;Laerm;58902;51.436;5.980;2023-02-12T00:33:31;38.11;32.82;46.85;;
71020;Laerm;58902;51.436;5.980;2023-02-12T00:33:41;37.62;32.08;45.32;;
71020;Laerm;58902;51.436;5.980;2023-02-12T00:33:52;37.62;31.03;46.10;;
71020;Laerm;58902;51.436;5.980;2023-02-12T00:34:02;39.09;31.81;48.75;;
71020;Laerm;58902;51.436;5.980;2023-02-12T00:34:13;38.40;31.26;48.70;;
71020;Laerm;58902;51.436;5.980;2023-02-12T00:34:23;36.55;32.03;46.27;;
71020;Laerm;58902;51.436;5.980;2023-02-12T00:34:33;35.67;32.56;43.81;;
71020;Laerm;58902;51.436;5.980;2023-02-12T00:34:45;35.02;32.14;42.26;;
71020;Laerm;58902;51.436;5.980;2023-02-12T00:34:55;36.38;32.36;43.93;;
71020;Laerm;58902;51.436;5.980;2023-02-12T00:35:06;37.08;33.55;42.07;;
71020;Laerm;58902;51.436;5.980;2023-02-12T00:35:16;35.79;32.91;45.98;;
71020;Laerm;58902;51.436;5.980;2023-02-12T00:35:27;41.23;33.15;50.73;;
71020;Laerm;58902;51.436;5.980;2023-02-12T00:35:37;38.88;33.80;49.41;;
71020;Laerm;58902;51.436;5.980;2023-02-12T00:35:57;37.22;33.50;46.42;;
71020;Laerm;58902;51.436;5.980;2023-02-12T00:36:07;40.50;32.94;52.08;;
71020;Laerm;58902;51.436;5.980;2023-02-12T00:36:22;40.44;32.18;53.32;;
71020;Laerm;58902;51.436;5.980;2023-02-12T00:36:33;35.87;32.15;45.28;;
71020;Laerm;58902;51.436;5.980;2023-02-12T00:36:43;39.79;32.64;50.32;;
71020;Laerm;58902;51.436;5.980;2023-02-12T00:36:54;37.96;33.71;44.79;;
71020;Laerm;58902;51.436;5.980;2023-02-12T00:37:04;40.93;33.59;52.57;;
71020;Laerm;58902;51.436;5.980;2023-02-12T00:37:15;36.66;33.79;45.17;;
71020;Laerm;58902;51.436;5.980;2023-02-12T00:37:25;41.50;33.67;53.14;;
71020;Laerm;58902;51.436;5.980;2023-02-12T00:37:35;41.23;35.57;49.21;;
71020;Laerm;58902;51.436;5.980;2023-02-12T00:37:46;37.64;33.28;46.16;;
71020;Laerm;58902;51.436;5.980;2023-02-12T00:37:56;40.47;32.39;50.08;;
71020;Laerm;58902;51.436;5.980;2023-02-12T00:38:06;37.61;32.00;47.49;;
71020;Laerm;58902;51.436;5.980;2023-02-12T00:38:17;43.20;32.29;54.95;;
71020;Laerm;58902;51.436;5.980;2023-02-12T00:38:28;42.09;32.55;51.15;;
71020;Laerm;58902;51.436;5.980;2023-02-12T00:38:38;39.46;32.25;48.43;;
71020;Laerm;58902;51.436;5.980;2023-02-12T00:38:50;39.69;31.92;50.62;;
71020;Laerm;58902;51.436;5.980;2023-02-12T00:39:01;38.70;31.88;47.82;;
71020;Laerm;58902;51.436;5.980;2023-02-12T00:39:11;37.12;32.59;46.28;;
71020;Laerm;58902;51.436;5.980;2023-02-12T00:39:21;38.36;33.13;46.54;;
71020;Laerm;58902;51.436;5.980;2023-02-12T00:39:32;39.35;32.46;47.53;;
71020;Laerm;58902;51.436;5.980;2023-02-12T00:39:44;37.10;32.44;44.49;;
71020;Laerm;58902;51.436;5.980;2023-02-12T00:39:55;40.45;32.72;50.06;;
71020;Laerm;58902;51.436;5.980;2023-02-12T00:40:05;36.42;32.84;42.93;;
71020;Laerm;58902;51.436;5.980;2023-02-12T00:40:16;37.10;33.17;43.70;;
71020;Laerm;58902;51.436;5.980;2023-02-12T00:40:26;37.01;31.88;49.83;;
71020;Laerm;58902;51.436;5.980;2023-02-12T00:40:36;38.72;32.45;48.43;;
71020;Laerm;58902;51.436;5.980;2023-02-12T00:40:47;40.66;35.12;47.68;;
71020;Laerm;58902;51.436;5.980;2023-02-12T00:40:57;44.06;38.28;50.33;;
71020;Laerm;58902;51.436;5.980;2023-02-12T00:41:07;43.63;37.33;50.02;;
71020;Laerm;58902;51.436;5.980;2023-02-12T00:41:18;38.01;31.29;46.81;;
71020;Laerm;58902;51.436;5.980;2023-02-12T00:41:29;34.89;31.42;45.26;;
71020;Laerm;58902;51.436;5.980;2023-02-12T00:41:39;37.40;30.47;48.21;;
71020;Laerm;58902;51.436;5.980;2023-02-12T00:41:49;36.68;30.39;44.84;;
71020;Laerm;58902;51.436;5.980;2023-02-12T00:42:00;36.09;31.24;42.82;;
71020;Laerm;58902;51.436;5.980;2023-02-12T00:42:10;41.12;34.23;50.10;;
71020;Laerm;58902;51.436;5.980;2023-02-12T00:42:20;37.54;32.76;46.51;;
71020;Laerm;58902;51.436;5.980;2023-02-12T00:42:31;36.23;31.72;45.46;;
71020;Laerm;58902;51.436;5.980;2023-02-12T00:42:41;38.23;31.23;46.37;;
71020;Laerm;58902;51.436;5.980;2023-02-12T00:42:51;37.12;31.50;44.92;;
71020;Laerm;58902;51.436;5.980;2023-02-12T00:43:02;35.89;31.48;45.74;;
71020;Laerm;58902;51.436;5.980;2023-02-12T00:43:12;39.91;30.75;54.26;;
71020;Laerm;58902;51.436;5.980;2023-02-12T00:43:23;39.90;30.90;52.32;;
71020;Laerm;58902;51.436;5.980;2023-02-12T00:43:33;39.25;31.12;50.19;;
71020;Laerm;58902;51.436;5.980;2023-02-12T00:43:47;38.27;31.55;46.46;;
71020;Laerm;58902;51.436;5.980;2023-02-12T00:43:57;38.38;31.57;50.24;;
71020;Laerm;58902;51.436;5.980;2023-02-12T00:44:08;38.21;32.89;46.63;;
71020;Laerm;58902;51.436;5.980;2023-02-12T00:44:18;35.49;32.65;38.98;;
71020;Laerm;58902;51.436;5.980;2023-02-12T00:44:29;35.54;31.32;39.82;;
71020;Laerm;58902;51.436;5.980;2023-02-12T00:44:39;35.19;31.40;40.07;;
71020;Laerm;58902;51.436;5.980;2023-02-12T00:44:49;35.95;32.30;40.67;;
71020;Laerm;58902;51.436;5.980;2023-02-12T00:45:00;34.34;31.18;38.70;;
71020;Laerm;58902;51.436;5.980;2023-02-12T00:45:10;35.38;30.84;42.47;;
71020;Laerm;58902;51.436;5.980;2023-02-12T00:45:20;36.69;32.15;43.23;;
71020;Laerm;58902;51.436;5.980;2023-02-12T00:45:31;36.00;32.23;41.11;;
71020;Laerm;58902;51.436;5.980;2023-02-12T00:45:43;36.99;32.88;41.53;;
71020;Laerm;58902;51.436;5.980;2023-02-12T00:45:53;36.17;32.08;39.83;;
71020;Laerm;58902;51.436;5.980;2023-02-12T00:46:04;34.62;32.08;40.36;;
71020;Laerm;58902;51.436;5.980;2023-02-12T00:46:14;36.61;32.22;41.74;;
71020;Laerm;58902;51.436;5.980;2023-02-12T00:46:25;37.60;33.57;43.75;;
71020;Laerm;58902;51.436;5.980;2023-02-12T00:46:35;36.95;32.70;44.78;;
71020;Laerm;58902;51.436;5.980;2023-02-12T00:46:45;36.85;32.79;40.85;;
71020;Laerm;58902;51.436;5.980;2023-02-12T00:46:56;37.04;32.80;45.41;;
71020;Laerm;58902;51.436;5.980;2023-02-12T00:47:06;35.57;32.54;41.25;;
71020;Laerm;58902;51.436;5.980;2023-02-12T00:47:17;38.62;33.36;44.03;;
71020;Laerm;58902;51.436;5.980;2023-02-12T00:47:27;40.33;33.57;46.62;;
71020;Laerm;58902;51.436;5.980;2023-02-12T00:47:38;37.55;32.04;44.28;;
71020;Laerm;58902;51.436;5.980;2023-02-12T00:47:48;35.17;32.60;44.28;;
71020;Laerm;58902;51.436;5.980;2023-02-12T00:47:58;36.25;32.59;46.89;;
71020;Laerm;58902;51.436;5.980;2023-02-12T00:48:08;39.58;32.75;46.77;;
71020;Laerm;58902;51.436;5.980;2023-02-12T00:48:19;38.28;32.41;47.73;;
71020;Laerm;58902;51.436;5.980;2023-02-12T00:48:29;35.58;31.48;44.51;;
71020;Laerm;58902;51.436;5.980;2023-02-12T00:48:40;37.28;31.72;45.71;;
71020;Laerm;58902;51.436;5.980;2023-02-12T00:48:50;38.78;31.57;51.02;;
71020;Laerm;58902;51.436;5.980;2023-02-12T00:49:01;37.30;31.89;45.39;;
71020;Laerm;58902;51.436;5.980;2023-02-12T00:49:11;37.69;32.84;45.64;;
71020;Laerm;58902;51.436;5.980;2023-02-12T00:49:22;38.83;33.49;48.12;;
71020;Laerm;58902;51.436;5.980;2023-02-12T00:49:33;40.98;32.01;49.11;;
71020;Laerm;58902;51.436;5.980;2023-02-12T00:49:43;36.42;32.32;42.13;;
71020;Laerm;58902;51.436;5.980;2023-02-12T00:49:54;43.19;32.64;55.36;;
71020;Laerm;58902;51.436;5.980;2023-02-12T00:50:04;39.54;32.11;50.60;;
71020;Laerm;58902;51.436;5.980;2023-02-12T00:50:15;35.89;31.48;44.11;;
71020;Laerm;58902;51.436;5.980;2023-02-12T00:50:25;39.38;31.18;51.47;;
71020;Laerm;58902;51.436;5.980;2023-02-12T00:50:35;41.12;32.62;52.75;;
71020;Laerm;58902;51.436;5.980;2023-02-12T00:50:46;42.63;32.71;54.31;;
71020;Laerm;58902;51.436;5.980;2023-02-12T00:50:57;40.30;32.72;49.24;;
71020;Laerm;58902;51.436;5.980;2023-02-12T00:51:08;39.20;33.26;46.68;;
71020;Laerm;58902;51.436;5.980;2023-02-12T00:51:18;42.58;32.34;53.66;;
71020;Laerm;58902;51.436;5.980;2023-02-12T00:51:28;41.69;32.23;51.92;;
71020;Laerm;58902;51.436;5.980;2023-02-12T00:51:39;37.37;30.83;43.85;;
71020;Laerm;58902;51.436;5.980;2023-02-12T00:51:49;39.07;32.53;50.48;;
71020;Laerm;58902;51.436;5.980;2023-02-12T00:52:02;42.99;32.78;50.97;;
71020;Laerm;58902;51.436;5.980;2023-02-12T00:52:13;43.62;31.34;56.39;;
71020;Laerm;58902;51.436;5.980;2023-02-12T00:52:24;42.66;33.29;51.55;;
71020;Laerm;58902;51.436;5.980;2023-02-12T00:52:34;38.61;33.42;48.59;;
71020;Laerm;58902;51.436;5.980;2023-02-12T00:52:45;37.98;32.26;47.62;;
71020;Laerm;58902;51.436;5.980;2023-02-12T00:52:55;37.90;31.21;47.79;;
71020;Laerm;58902;51.436;5.980;2023-02-12T00:53:06;35.05;31.92;40.81;;
71020;Laerm;58902;51.436;5.980;2023-02-12T00:53:16;36.14;32.24;44.76;;
71020;Laerm;58902;51.436;5.980;2023-02-12T00:53:27;35.59;32.95;42.22;;
71020;Laerm;58902;51.436;5.980;2023-02-12T00:53:38;48.43;33.35;64.85;;
71020;Laerm;58902;51.436;5.980;2023-02-12T00:53:48;44.65;34.20;57.02;;
71020;Laerm;58902;51.436;5.980;2023-02-12T00:53:59;44.04;36.92;51.08;;
71020;Laerm;58902;51.436;5.980;2023-02-12T00:54:09;43.12;36.25;51.99;;
71020;Laerm;58902;51.436;5.980;2023-02-12T00:54:19;46.19;36.71;57.29;;
71020;Laerm;58902;51.436;5.980;2023-02-12T00:54:30;43.18;36.81;52.46;;
71020;Laerm;58902;51.436;5.980;2023-02-12T00:54:40;41.24;36.28;47.80;;
71020;Laerm;58902;51.436;5.980;2023-02-12T00:54:51;42.59;36.15;52.31;;
71020;Laerm;58902;51.436;5.980;2023-02-12T00:55:01;40.73;35.73;48.26;;
71020;Laerm;58902;51.436;5.980;2023-02-12T00:55:12;41.14;36.34;49.92;;
71020;Laerm;58902;51.436;5.980;2023-02-12T00:55:22;41.66;36.25;49.29;;
71020;Laerm;58902;51.436;5.980;2023-02-12T00:55:32;42.05;35.33;57.16;;
71020;Laerm;58902;51.436;5.980;2023-02-12T00:55:43;42.20;35.99;52.96;;
71020;Laerm;58902;51.436;5.980;2023-02-12T00:55:53;42.44;36.70;50.19;;
71020;Laerm;58902;51.436;5.980;2023-02-12T00:56:04;43.27;36.87;51.89;;
71020;Laerm;58902;51.436;5.980;2023-02-12T00:56:14;43.47;33.35;58.23;;
71020;Laerm;58902;51.436;5.980;2023-02-12T00:56:24;40.73;33.17;49.30;;
71020;Laerm;58902;51.436;5.980;2023-02-12T00:56:35;39.66;33.71;48.15;;
71020;Laerm;58902;51.436;5.980;2023-02-12T00:56:45;38.56;34.55;43.84;;
71020;Laerm;58902;51.436;5.980;2023-02-12T00:56:56;41.82;33.38;50.04;;
71020;Laerm;58902;51.436;5.980;2023-02-12T00:57:06;37.88;32.62;46.07;;
71020;Laerm;58902;51.436;5.980;2023-02-12T00:57:16;37.97;32.29;47.91;;
71020;Laerm;58902;51.436;5.980;2023-02-12T00:57:27;39.28;33.38;48.31;;
71020;Laerm;58902;51.436;5.980;2023-02-12T00:57:37;42.51;31.64;53.23;;
71020;Laerm;58902;51.436;5.980;2023-02-12T00:57:47;42.23;34.21;49.60;;
71020;Laerm;58902;51.436;5.980;2023-02-12T00:57:58;40.02;34.28;49.92;;
71020;Laerm;58902;51.436;5.980;2023-02-12T00:58:08;40.43;32.85;51.00;;
71020;Laerm;58902;51.436;5.980;2023-02-12T00:58:18;45.04;34.41;52.56;;
71020;Laerm;58902;51.436;5.980;2023-02-12T00:58:29;47.03;36.83;55.75;;
71020;Laerm;58902;51.436;5.980;2023-02-12T00:58:39;40.19;34.97;50.07;;
71020;Laerm;58902;51.436;5.980;2023-02-12T00:58:50;39.50;34.77;49.15;;
71020;Laerm;58902;51.436;5.980;2023-02-12T00:59:00;40.52;36.25;45.75;;
71020;Laerm;58902;51.436;5.980;2023-02-12T00:59:10;42.43;35.53;53.96;;
71020;Laerm;58902;51.436;5.980;2023-02-12T00:59:21;40.79;34.10;50.86;;
71020;Laerm;58902;51.436;5.980;2023-02-12T00:59:32;40.36;34.81;48.46;;
71020;Laerm;58902;51.436;5.980;2023-02-12T00:59:45;40.32;34.22;48.33;;
71020;Laerm;58902;51.436;5.980;2023-02-12T00:59:56;41.54;32.76;52.71;;
71020;Laerm;58902;51.436;5.980;2023-02-12T01:00:07;44.51;31.95;55.89;;